Ahmadi, Kuwait

2:13 PM AST on February 12, 2016 (GMT +0300)
Kuwait International | | Change Station
CLOSE
Current Station
Airport
Location: Kuwait,
Elevation: 180 ft
Nearby Weather Stations

Elev 180 ft 29.22 °N, 47.98 °E | Updated 13 minutes ago

Clear
Clear
66 °F
Feels Like 66 °F
N
18
Wind Variable Wind from NNW

Today
High -- | Low -- °F
--% Chance of Precip.
Yesterday
High -- | Low -- °F
Precip. -- in
Pressure 30.15 in
Visibility -9999.0 miles
Clouds
Dew Point 28 °F
Humidity 24%
Rainfall 0.00 in
Snow Depth Not available.
6:29 AM 5:34 PM
Waxing Crescent, 19% visible
METAR OKBK 121100Z 34016KT CAVOK 19/M02 Q1021 NOSIG
Pressure 30.15 in
Visibility -9999.0 miles
Clouds
Dew Point 28 °F
Humidity 24%
Rainfall 0.00 in
Snow Depth Not available.
6:29 AM 5:34 PM
Waxing Crescent, 19% visible
METAR OKBK 121100Z 34016KT CAVOK 19/M02 Q1021 NOSIG

10-Day Weather Forecast

No radar image for this location.
×

Almanac

Astronomy

Feb. 12, 2016 Rise Set
Actual Time
Civil Twilight
Nautical Twilight
Astronomical Twilight
Moon
Length of Visible Light
Length of Day
Tomorrow will be .
, % of the Moon is Illuminated

Today's Extremes

Country Highs Country Lows

Community

WunderPhotos

Upload Photos

1,892,290 photos uploaded!

WunderBlog® & News

Nearby

Air Quality

  Air Quality AQ Index Pollutant
Not available.

Snow Depth

Station Depth Elevation

Earthquake Activity

City Distance Mag. Time & Date
Minimum magnitude displayed is 2.5.

Coastal Water Temperatures

Place Temperature

Stations

Nearby Weather Stations

Station Location Temp. Windchill Dew Point Humidity Wind Precip. Elev Updated Type